sensor_id;sensor_type;location;lat;lon;timestamp;P1;durP1;ratioP1;P2;durP2;ratioP2
29712;SDS011;16623;53.632;10.016;2022-09-20T00:00:05;13.65;;;3.40;;
29712;SDS011;16623;53.632;10.016;2022-09-20T00:02:32;11.20;;;3.20;;
29712;SDS011;16623;53.632;10.016;2022-09-20T00:04:57;10.18;;;3.13;;
29712;SDS011;16623;53.632;10.016;2022-09-20T00:07:23;7.45;;;3.17;;
29712;SDS011;16623;53.632;10.016;2022-09-20T00:09:49;8.07;;;3.22;;
29712;SDS011;16623;53.632;10.016;2022-09-20T00:12:14;12.75;;;3.30;;
29712;SDS011;16623;53.632;10.016;2022-09-20T00:14:40;7.55;;;3.70;;
29712;SDS011;16623;53.632;10.016;2022-09-20T00:17:06;12.45;;;4.25;;
29712;SDS011;16623;53.632;10.016;2022-09-20T00:19:31;9.82;;;2.95;;
29712;SDS011;16623;53.632;10.016;2022-09-20T00:21:57;7.57;;;3.35;;
29712;SDS011;16623;53.632;10.016;2022-09-20T00:24:22;10.55;;;3.55;;
29712;SDS011;16623;53.632;10.016;2022-09-20T00:26:48;11.68;;;3.63;;
29712;SDS011;16623;53.632;10.016;2022-09-20T00:29:14;17.77;;;3.90;;
29712;SDS011;16623;53.632;10.016;2022-09-20T00:31:39;14.63;;;3.55;;
29712;SDS011;16623;53.632;10.016;2022-09-20T00:34:07;12.15;;;4.47;;
29712;SDS011;16623;53.632;10.016;2022-09-20T00:36:53;11.07;;;3.97;;
29712;SDS011;16623;53.632;10.016;2022-09-20T00:39:18;18.05;;;4.50;;
29712;SDS011;16623;53.632;10.016;2022-09-20T00:41:44;12.80;;;3.40;;
29712;SDS011;16623;53.632;10.016;2022-09-20T00:47:25;21.92;;;3.88;;
29712;SDS011;16623;53.632;10.016;2022-09-20T00:49:59;14.18;;;3.75;;
29712;SDS011;16623;53.632;10.016;2022-09-20T00:52:30;16.60;;;3.58;;
29712;SDS011;16623;53.632;10.016;2022-09-20T00:54:56;18.17;;;3.40;;
29712;SDS011;16623;53.632;10.016;2022-09-20T00:57:24;17.42;;;4.15;;
29712;SDS011;16623;53.632;10.016;2022-09-20T00:59:50;10.57;;;4.25;;
29712;SDS011;16623;53.632;10.016;2022-09-20T01:02:20;10.57;;;3.13;;
29712;SDS011;16623;53.632;10.016;2022-09-20T01:04:49;9.20;;;3.05;;
29712;SDS011;16623;53.632;10.016;2022-09-20T01:07:16;10.13;;;3.47;;
29712;SDS011;16623;53.632;10.016;2022-09-20T01:09:44;11.80;;;3.00;;
29712;SDS011;16623;53.632;10.016;2022-09-20T01:12:10;11.32;;;3.13;;
29712;SDS011;16623;53.632;10.016;2022-09-20T01:14:40;11.65;;;3.33;;
29712;SDS011;16623;53.632;10.016;2022-09-20T01:17:07;9.05;;;3.67;;
29712;SDS011;16623;53.632;10.016;2022-09-20T01:22:50;13.67;;;3.83;;
29712;SDS011;16623;53.632;10.016;2022-09-20T01:28:23;11.27;;;3.72;;
29712;SDS011;16623;53.632;10.016;2022-09-20T01:33:57;11.50;;;3.80;;
29712;SDS011;16623;53.632;10.016;2022-09-20T01:36:37;14.55;;;3.70;;
29712;SDS011;16623;53.632;10.016;2022-09-20T01:39:30;11.02;;;4.10;;
29712;SDS011;16623;53.632;10.016;2022-09-20T01:42:08;19.05;;;4.15;;
29712;SDS011;16623;53.632;10.016;2022-09-20T01:44:44;14.55;;;4.10;;
29712;SDS011;16623;53.632;10.016;2022-09-20T01:47:31;13.38;;;4.70;;
29712;SDS011;16623;53.632;10.016;2022-09-20T01:53:20;14.65;;;4.63;;
29712;SDS011;16623;53.632;10.016;2022-09-20T02:01:30;11.10;;;4.53;;
29712;SDS011;16623;53.632;10.016;2022-09-20T02:11:05;16.77;;;5.15;;
29712;SDS011;16623;53.632;10.016;2022-09-20T02:13:39;13.52;;;4.90;;
29712;SDS011;16623;53.632;10.016;2022-09-20T02:16:35;12.15;;;5.82;;
29712;SDS011;16623;53.632;10.016;2022-09-20T02:19:19;10.90;;;4.82;;
29712;SDS011;16623;53.632;10.016;2022-09-20T02:27:49;14.20;;;5.95;;
29712;SDS011;16623;53.632;10.016;2022-09-20T02:30:47;13.82;;;4.60;;
29712;SDS011;16623;53.632;10.016;2022-09-20T02:33:22;19.75;;;5.50;;
29712;SDS011;16623;53.632;10.016;2022-09-20T02:41:55;13.55;;;5.47;;
29712;SDS011;16623;53.632;10.016;2022-09-20T02:44:35;7.88;;;5.15;;
29712;SDS011;16623;53.632;10.016;2022-09-20T02:47:25;10.10;;;5.50;;
29712;SDS011;16623;53.632;10.016;2022-09-20T02:56:11;14.13;;;6.10;;
29712;SDS011;16623;53.632;10.016;2022-09-20T03:04:33;15.90;;;5.68;;
29712;SDS011;16623;53.632;10.016;2022-09-20T03:07:23;17.77;;;6.22;;
29712;SDS011;16623;53.632;10.016;2022-09-20T03:12:48;13.02;;;4.60;;
29712;SDS011;16623;53.632;10.016;2022-09-20T03:20:33;13.23;;;5.57;;
29712;SDS011;16623;53.632;10.016;2022-09-20T03:26:15;10.00;;;4.93;;
29712;SDS011;16623;53.632;10.016;2022-09-20T03:28:54;10.77;;;5.05;;
29712;SDS011;16623;53.632;10.016;2022-09-20T03:34:31;12.52;;;4.90;;
29712;SDS011;16623;53.632;10.016;2022-09-20T03:37:13;12.98;;;5.25;;
29712;SDS011;16623;53.632;10.016;2022-09-20T03:40:41;11.27;;;3.80;;
29712;SDS011;16623;53.632;10.016;2022-09-20T03:46:15;14.18;;;4.40;;
29712;SDS011;16623;53.632;10.016;2022-09-20T03:49:26;10.63;;;4.65;;
29712;SDS011;16623;53.632;10.016;2022-09-20T03:52:11;11.02;;;4.72;;
29712;SDS011;16623;53.632;10.016;2022-09-20T03:54:58;9.80;;;4.50;;
29712;SDS011;16623;53.632;10.016;2022-09-20T04:00:20;13.85;;;4.57;;
29712;SDS011;16623;53.632;10.016;2022-09-20T04:05:56;7.95;;;4.43;;
29712;SDS011;16623;53.632;10.016;2022-09-20T04:11:26;9.65;;;4.90;;
29712;SDS011;16623;53.632;10.016;2022-09-20T04:14:22;9.13;;;3.80;;
29712;SDS011;16623;53.632;10.016;2022-09-20T04:16:57;13.38;;;4.40;;
29712;SDS011;16623;53.632;10.016;2022-09-20T04:19:34;13.23;;;4.70;;
29712;SDS011;16623;53.632;10.016;2022-09-20T04:22:07;11.70;;;4.53;;
29712;SDS011;16623;53.632;10.016;2022-09-20T04:27:26;9.77;;;4.53;;
29712;SDS011;16623;53.632;10.016;2022-09-20T04:30:07;10.35;;;4.05;;
29712;SDS011;16623;53.632;10.016;2022-09-20T04:35:44;12.95;;;5.05;;
29712;SDS011;16623;53.632;10.016;2022-09-20T04:38:52;8.38;;;4.18;;
29712;SDS011;16623;53.632;10.016;2022-09-20T04:47:22;15.10;;;4.30;;
29712;SDS011;16623;53.632;10.016;2022-09-20T04:50:18;12.57;;;5.13;;
29712;SDS011;16623;53.632;10.016;2022-09-20T04:56:15;15.68;;;4.63;;
29712;SDS011;16623;53.632;10.016;2022-09-20T04:59:19;8.93;;;5.22;;
29712;SDS011;16623;53.632;10.016;2022-09-20T05:07:31;9.65;;;4.60;;
29712;SDS011;16623;53.632;10.016;2022-09-20T05:10:36;14.65;;;4.95;;
29712;SDS011;16623;53.632;10.016;2022-09-20T05:16:20;10.90;;;4.82;;
29712;SDS011;16623;53.632;10.016;2022-09-20T05:19:14;11.90;;;4.78;;
29712;SDS011;16623;53.632;10.016;2022-09-20T05:27:49;9.90;;;4.90;;
29712;SDS011;16623;53.632;10.016;2022-09-20T05:30:32;8.50;;;4.85;;
29712;SDS011;16623;53.632;10.016;2022-09-20T05:38:46;8.82;;;4.45;;
29712;SDS011;16623;53.632;10.016;2022-09-20T05:55:41;8.23;;;4.80;;
29712;SDS011;16623;53.632;10.016;2022-09-20T06:01:18;13.70;;;4.22;;
29712;SDS011;16623;53.632;10.016;2022-09-20T06:03:55;8.65;;;3.67;;
29712;SDS011;16623;53.632;10.016;2022-09-20T06:06:50;9.25;;;3.83;;
29712;SDS011;16623;53.632;10.016;2022-09-20T06:15:33;6.40;;;3.70;;
29712;SDS011;16623;53.632;10.016;2022-09-20T06:18:16;6.22;;;4.10;;
29712;SDS011;16623;53.632;10.016;2022-09-20T06:23:47;7.72;;;4.00;;
29712;SDS011;16623;53.632;10.016;2022-09-20T06:26:14;6.82;;;3.63;;
29712;SDS011;16623;53.632;10.016;2022-09-20T06:28:45;9.70;;;4.30;;
29712;SDS011;16623;53.632;10.016;2022-09-20T06:31:15;7.75;;;4.43;;
29712;SDS011;16623;53.632;10.016;2022-09-20T06:33:47;10.88;;;3.90;;
29712;SDS011;16623;53.632;10.016;2022-09-20T06:36:29;5.82;;;3.67;;
29712;SDS011;16623;53.632;10.016;2022-09-20T06:42:06;8.02;;;3.72;;
29712;SDS011;16623;53.632;10.016;2022-09-20T06:44:34;9.00;;;3.70;;
29712;SDS011;16623;53.632;10.016;2022-09-20T06:47:08;10.43;;;3.90;;
29712;SDS011;16623;53.632;10.016;2022-09-20T06:49:35;8.88;;;3.22;;
29712;SDS011;16623;53.632;10.016;2022-09-20T06:52:04;8.82;;;3.38;;
29712;SDS011;16623;53.632;10.016;2022-09-20T06:54:30;7.55;;;3.70;;
29712;SDS011;16623;53.632;10.016;2022-09-20T06:56:57;15.70;;;4.28;;
29712;SDS011;16623;53.632;10.016;2022-09-20T06:59:26;10.85;;;3.47;;
29712;SDS011;16623;53.632;10.016;2022-09-20T07:01:52;8.38;;;3.05;;
29712;SDS011;16623;53.632;10.016;2022-09-20T07:04:18;9.25;;;3.45;;
29712;SDS011;16623;53.632;10.016;2022-09-20T07:06:43;7.05;;;3.05;;
29712;SDS011;16623;53.632;10.016;2022-09-20T07:09:09;9.07;;;2.95;;
29712;SDS011;16623;53.632;10.016;2022-09-20T07:11:35;14.40;;;3.55;;
29712;SDS011;16623;53.632;10.016;2022-09-20T07:14:01;7.68;;;3.30;;
29712;SDS011;16623;53.632;10.016;2022-09-20T07:16:27;15.98;;;3.38;;
29712;SDS011;16623;53.632;10.016;2022-09-20T07:18:52;16.60;;;6.93;;
29712;SDS011;16623;53.632;10.016;2022-09-20T07:21:19;11.45;;;5.00;;
29712;SDS011;16623;53.632;10.016;2022-09-20T07:23:45;7.43;;;3.45;;
29712;SDS011;16623;53.632;10.016;2022-09-20T07:26:23;11.90;;;3.42;;
29712;SDS011;16623;53.632;10.016;2022-09-20T07:28:51;12.40;;;2.92;;
29712;SDS011;16623;53.632;10.016;2022-09-20T07:31:17;10.82;;;2.88;;
29712;SDS011;16623;53.632;10.016;2022-09-20T07:33:44;10.85;;;3.50;;
29712;SDS011;16623;53.632;10.016;2022-09-20T07:36:10;8.27;;;2.50;;
29712;SDS011;16623;53.632;10.016;2022-09-20T07:38:36;11.23;;;2.90;;
29712;SDS011;16623;53.632;10.016;2022-09-20T07:41:02;12.80;;;2.65;;
29712;SDS011;16623;53.632;10.016;2022-09-20T07:43:28;7.50;;;2.75;;
29712;SDS011;16623;53.632;10.016;2022-09-20T07:45:55;8.68;;;2.55;;
29712;SDS011;16623;53.632;10.016;2022-09-20T07:48:24;13.35;;;3.25;;
29712;SDS011;16623;53.632;10.016;2022-09-20T07:50:51;11.65;;;2.35;;
29712;SDS011;16623;53.632;10.016;2022-09-20T07:53:19;7.22;;;2.08;;
29712;SDS011;16623;53.632;10.016;2022-09-20T07:55:55;11.98;;;2.95;;
29712;SDS011;16623;53.632;10.016;2022-09-20T07:58:24;13.48;;;3.55;;
29712;SDS011;16623;53.632;10.016;2022-09-20T08:00:54;14.55;;;2.33;;
29712;SDS011;16623;53.632;10.016;2022-09-20T08:03:21;18.55;;;2.30;;
29712;SDS011;16623;53.632;10.016;2022-09-20T08:05:48;14.30;;;2.67;;
29712;SDS011;16623;53.632;10.016;2022-09-20T08:08:17;10.88;;;2.13;;
29712;SDS011;16623;53.632;10.016;2022-09-20T08:10:43;10.18;;;2.13;;
29712;SDS011;16623;53.632;10.016;2022-09-20T08:13:10;14.23;;;2.42;;
29712;SDS011;16623;53.632;10.016;2022-09-20T08:15:38;18.15;;;3.42;;
29712;SDS011;16623;53.632;10.016;2022-09-20T08:18:05;13.68;;;1.85;;
29712;SDS011;16623;53.632;10.016;2022-09-20T08:20:34;14.73;;;2.13;;
29712;SDS011;16623;53.632;10.016;2022-09-20T08:23:01;17.15;;;2.47;;
29712;SDS011;16623;53.632;10.016;2022-09-20T08:25:27;13.50;;;2.53;;
29712;SDS011;16623;53.632;10.016;2022-09-20T08:27:53;11.90;;;2.13;;
29712;SDS011;16623;53.632;10.016;2022-09-20T08:30:19;12.32;;;3.28;;
29712;SDS011;16623;53.632;10.016;2022-09-20T08:32:45;17.95;;;2.80;;
29712;SDS011;16623;53.632;10.016;2022-09-20T08:35:11;11.40;;;2.10;;
29712;SDS011;16623;53.632;10.016;2022-09-20T08:37:38;12.15;;;2.15;;
29712;SDS011;16623;53.632;10.016;2022-09-20T08:40:04;14.25;;;3.13;;
29712;SDS011;16623;53.632;10.016;2022-09-20T08:42:31;15.13;;;2.85;;
29712;SDS011;16623;53.632;10.016;2022-09-20T08:45:01;13.70;;;2.20;;
29712;SDS011;16623;53.632;10.016;2022-09-20T08:47:31;13.93;;;3.17;;
29712;SDS011;16623;53.632;10.016;2022-09-20T08:49:59;14.38;;;2.70;;
29712;SDS011;16623;53.632;10.016;2022-09-20T08:52:30;7.80;;;2.15;;
29712;SDS011;16623;53.632;10.016;2022-09-20T08:54:59;9.77;;;2.50;;
29712;SDS011;16623;53.632;10.016;2022-09-20T08:57:26;15.73;;;2.13;;
29712;SDS011;16623;53.632;10.016;2022-09-20T08:59:57;11.07;;;2.22;;
29712;SDS011;16623;53.632;10.016;2022-09-20T09:02:28;6.72;;;1.77;;
29712;SDS011;16623;53.632;10.016;2022-09-20T09:04:56;20.00;;;1.80;;
29712;SDS011;16623;53.632;10.016;2022-09-20T09:07:22;13.70;;;3.45;;
29712;SDS011;16623;53.632;10.016;2022-09-20T09:09:50;12.68;;;2.35;;
29712;SDS011;16623;53.632;10.016;2022-09-20T09:12:27;14.40;;;2.08;;
29712;SDS011;16623;53.632;10.016;2022-09-20T09:15:15;7.35;;;2.08;;
29712;SDS011;16623;53.632;10.016;2022-09-20T09:17:53;19.17;;;3.95;;
29712;SDS011;16623;53.632;10.016;2022-09-20T09:20:20;13.82;;;1.70;;
29712;SDS011;16623;53.632;10.016;2022-09-20T09:23:03;10.00;;;1.80;;
29712;SDS011;16623;53.632;10.016;2022-09-20T09:25:39;11.18;;;1.90;;
29712;SDS011;16623;53.632;10.016;2022-09-20T09:36:16;13.88;;;2.40;;
29712;SDS011;16623;53.632;10.016;2022-09-20T09:38:49;16.77;;;2.83;;
29712;SDS011;16623;53.632;10.016;2022-09-20T09:41:35;12.98;;;2.97;;
29712;SDS011;16623;53.632;10.016;2022-09-20T09:44:02;13.15;;;2.05;;
29712;SDS011;16623;53.632;10.016;2022-09-20T09:46:42;9.63;;;1.70;;
29712;SDS011;16623;53.632;10.016;2022-09-20T09:49:41;7.00;;;2.10;;
29712;SDS011;16623;53.632;10.016;2022-09-20T09:52:04;14.52;;;1.70;;
29712;SDS011;16623;53.632;10.016;2022-09-20T09:54:45;11.75;;;2.00;;
29712;SDS011;16623;53.632;10.016;2022-09-20T09:57:33;17.80;;;2.33;;
29712;SDS011;16623;53.632;10.016;2022-09-20T10:00:19;12.13;;;2.13;;
29712;SDS011;16623;53.632;10.016;2022-09-20T10:02:53;9.35;;;2.80;;
29712;SDS011;16623;53.632;10.016;2022-09-20T10:13:45;9.32;;;2.10;;
29712;SDS011;16623;53.632;10.016;2022-09-20T10:30:30;14.45;;;2.75;;
29712;SDS011;16623;53.632;10.016;2022-09-20T10:38:59;12.18;;;2.17;;
29712;SDS011;16623;53.632;10.016;2022-09-20T10:41:43;5.18;;;1.60;;
29712;SDS011;16623;53.632;10.016;2022-09-20T10:44:40;8.10;;;1.63;;
29712;SDS011;16623;53.632;10.016;2022-09-20T10:47:44;9.43;;;2.00;;
29712;SDS011;16623;53.632;10.016;2022-09-20T10:58:44;8.98;;;1.80;;
29712;SDS011;16623;53.632;10.016;2022-09-20T11:01:28;14.50;;;2.17;;
29712;SDS011;16623;53.632;10.016;2022-09-20T11:04:16;10.80;;;2.85;;
29712;SDS011;16623;53.632;10.016;2022-09-20T11:07:04;11.23;;;2.13;;
29712;SDS011;16623;53.632;10.016;2022-09-20T11:09:36;10.75;;;2.30;;
29712;SDS011;16623;53.632;10.016;2022-09-20T11:12:24;9.70;;;2.20;;
29712;SDS011;16623;53.632;10.016;2022-09-20T11:15:14;14.18;;;3.22;;
29712;SDS011;16623;53.632;10.016;2022-09-20T11:18:23;7.55;;;2.05;;
29712;SDS011;16623;53.632;10.016;2022-09-20T11:21:02;8.25;;;2.70;;
29712;SDS011;16623;53.632;10.016;2022-09-20T11:23:39;10.15;;;2.45;;
29712;SDS011;16623;53.632;10.016;2022-09-20T11:26:29;12.18;;;2.53;;
29712;SDS011;16623;53.632;10.016;2022-09-20T11:29:03;9.57;;;2.38;;
29712;SDS011;16623;53.632;10.016;2022-09-20T11:31:38;9.85;;;1.85;;
29712;SDS011;16623;53.632;10.016;2022-09-20T11:34:09;11.48;;;1.77;;
29712;SDS011;16623;53.632;10.016;2022-09-20T11:40:21;10.38;;;2.33;;
29712;SDS011;16623;53.632;10.016;2022-09-20T11:42:51;10.38;;;2.03;;
29712;SDS011;16623;53.632;10.016;2022-09-20T11:45:20;9.27;;;1.73;;
29712;SDS011;16623;53.632;10.016;2022-09-20T11:47:47;11.15;;;2.75;;
29712;SDS011;16623;53.632;10.016;2022-09-20T11:50:32;10.75;;;1.75;;
29712;SDS011;16623;53.632;10.016;2022-09-20T11:56:00;14.45;;;1.77;;
29712;SDS011;16623;53.632;10.016;2022-09-20T12:01:10;11.23;;;2.40;;
29712;SDS011;16623;53.632;10.016;2022-09-20T12:03:38;9.43;;;1.80;;
29712;SDS011;16623;53.632;10.016;2022-09-20T12:06:07;6.85;;;1.45;;
29712;SDS011;16623;53.632;10.016;2022-09-20T12:08:48;11.48;;;2.75;;
29712;SDS011;16623;53.632;10.016;2022-09-20T12:11:15;9.93;;;1.73;;
29712;SDS011;16623;53.632;10.016;2022-09-20T12:13:42;10.35;;;1.70;;
29712;SDS011;16623;53.632;10.016;2022-09-20T12:16:34;5.40;;;1.55;;
29712;SDS011;16623;53.632;10.016;2022-09-20T12:21:31;9.43;;;1.98;;
29712;SDS011;16623;53.632;10.016;2022-09-20T12:24:22;7.28;;;1.65;;
29712;SDS011;16623;53.632;10.016;2022-09-20T12:26:56;7.53;;;1.40;;
29712;SDS011;16623;53.632;10.016;2022-09-20T12:31:51;6.05;;;1.30;;
29712;SDS011;16623;53.632;10.016;2022-09-20T12:36:44;6.63;;;1.52;;
29712;SDS011;16623;53.632;10.016;2022-09-20T12:39:34;9.07;;;1.38;;
29712;SDS011;16623;53.632;10.016;2022-09-20T12:47:28;12.82;;;1.80;;
29712;SDS011;16623;53.632;10.016;2022-09-20T12:49:56;10.20;;;2.13;;
29712;SDS011;16623;53.632;10.016;2022-09-20T13:00:43;4.95;;;1.13;;
29712;SDS011;16623;53.632;10.016;2022-09-20T13:03:44;4.50;;;1.50;;
29712;SDS011;16623;53.632;10.016;2022-09-20T13:08:44;4.05;;;1.00;;
29712;SDS011;16623;53.632;10.016;2022-09-20T13:11:39;5.88;;;1.42;;
29712;SDS011;16623;53.632;10.016;2022-09-20T13:14:24;8.65;;;1.30;;
29712;SDS011;16623;53.632;10.016;2022-09-20T13:16:55;8.93;;;2.35;;
29712;SDS011;16623;53.632;10.016;2022-09-20T13:24:24;5.65;;;1.50;;
29712;SDS011;16623;53.632;10.016;2022-09-20T13:26:52;8.27;;;1.60;;
29712;SDS011;16623;53.632;10.016;2022-09-20T13:29:33;6.88;;;1.67;;
29712;SDS011;16623;53.632;10.016;2022-09-20T13:32:16;3.80;;;1.13;;
29712;SDS011;16623;53.632;10.016;2022-09-20T13:34:43;5.50;;;1.20;;
29712;SDS011;16623;53.632;10.016;2022-09-20T13:37:16;10.82;;;1.73;;
29712;SDS011;16623;53.632;10.016;2022-09-20T13:39:51;5.78;;;1.73;;
29712;SDS011;16623;53.632;10.016;2022-09-20T13:42:18;4.43;;;1.42;;
29712;SDS011;16623;53.632;10.016;2022-09-20T13:44:44;10.80;;;1.90;;
29712;SDS011;16623;53.632;10.016;2022-09-20T13:47:25;4.10;;;1.08;;
29712;SDS011;16623;53.632;10.016;2022-09-20T13:49:58;6.07;;;1.35;;
29712;SDS011;16623;53.632;10.016;2022-09-20T13:52:42;5.53;;;1.52;;
29712;SDS011;16623;53.632;10.016;2022-09-20T13:55:45;7.68;;;1.55;;
29712;SDS011;16623;53.632;10.016;2022-09-20T13:58:05;8.00;;;1.10;;
29712;SDS011;16623;53.632;10.016;2022-09-20T14:00:31;5.53;;;1.30;;
29712;SDS011;16623;53.632;10.016;2022-09-20T14:02:59;7.72;;;1.42;;
29712;SDS011;16623;53.632;10.016;2022-09-20T14:05:25;4.55;;;1.42;;
29712;SDS011;16623;53.632;10.016;2022-09-20T14:07:53;5.05;;;1.35;;
29712;SDS011;16623;53.632;10.016;2022-09-20T14:13:01;9.18;;;1.52;;
29712;SDS011;16623;53.632;10.016;2022-09-20T14:15:37;4.28;;;0.90;;
29712;SDS011;16623;53.632;10.016;2022-09-20T14:18:15;6.03;;;1.40;;
29712;SDS011;16623;53.632;10.016;2022-09-20T14:20:42;4.80;;;1.30;;
29712;SDS011;16623;53.632;10.016;2022-09-20T14:23:19;6.82;;;1.45;;
29712;SDS011;16623;53.632;10.016;2022-09-20T14:28:52;6.22;;;1.88;;
29712;SDS011;16623;53.632;10.016;2022-09-20T14:33:47;5.00;;;1.40;;
29712;SDS011;16623;53.632;10.016;2022-09-20T14:36:18;9.65;;;1.40;;
29712;SDS011;16623;53.632;10.016;2022-09-20T14:38:56;4.75;;;1.10;;
29712;SDS011;16623;53.632;10.016;2022-09-20T14:41:33;3.47;;;1.25;;
29712;SDS011;16623;53.632;10.016;2022-09-20T14:44:01;4.82;;;1.30;;
29712;SDS011;16623;53.632;10.016;2022-09-20T14:46:35;3.67;;;0.85;;
29712;SDS011;16623;53.632;10.016;2022-09-20T14:51:50;3.45;;;0.95;;
29712;SDS011;16623;53.632;10.016;2022-09-20T14:54:22;5.25;;;0.90;;
29712;SDS011;16623;53.632;10.016;2022-09-20T14:56:50;4.27;;;1.30;;
29712;SDS011;16623;53.632;10.016;2022-09-20T15:02:07;5.22;;;1.73;;
29712;SDS011;16623;53.632;10.016;2022-09-20T15:04:30;5.85;;;1.80;;
29712;SDS011;16623;53.632;10.016;2022-09-20T15:07:00;6.32;;;1.85;;
29712;SDS011;16623;53.632;10.016;2022-09-20T15:09:28;9.07;;;2.40;;
29712;SDS011;16623;53.632;10.016;2022-09-20T15:12:01;5.85;;;2.30;;
29712;SDS011;16623;53.632;10.016;2022-09-20T15:14:28;8.02;;;2.28;;
29712;SDS011;16623;53.632;10.016;2022-09-20T15:16:54;3.63;;;1.55;;
29712;SDS011;16623;53.632;10.016;2022-09-20T15:19:21;6.47;;;1.35;;
29712;SDS011;16623;53.632;10.016;2022-09-20T15:21:47;5.93;;;1.38;;
29712;SDS011;16623;53.632;10.016;2022-09-20T15:24:12;6.93;;;1.92;;
29712;SDS011;16623;53.632;10.016;2022-09-20T15:26:38;4.93;;;2.10;;
29712;SDS011;16623;53.632;10.016;2022-09-20T15:29:04;3.78;;;1.13;;
29712;SDS011;16623;53.632;10.016;2022-09-20T15:31:30;4.07;;;1.10;;
29712;SDS011;16623;53.632;10.016;2022-09-20T15:33:55;8.02;;;1.33;;
29712;SDS011;16623;53.632;10.016;2022-09-20T15:36:21;6.07;;;1.60;;
29712;SDS011;16623;53.632;10.016;2022-09-20T15:38:48;4.70;;;1.60;;
29712;SDS011;16623;53.632;10.016;2022-09-20T15:41:17;4.55;;;1.30;;
29712;SDS011;16623;53.632;10.016;2022-09-20T15:43:45;3.20;;;1.10;;
29712;SDS011;16623;53.632;10.016;2022-09-20T15:46:20;3.58;;;1.50;;
29712;SDS011;16623;53.632;10.016;2022-09-20T15:48:48;9.18;;;1.60;;
29712;SDS011;16623;53.632;10.016;2022-09-20T15:51:14;7.30;;;1.30;;
29712;SDS011;16623;53.632;10.016;2022-09-20T15:53:44;6.78;;;1.58;;
29712;SDS011;16623;53.632;10.016;2022-09-20T15:56:16;7.30;;;1.33;;
29712;SDS011;16623;53.632;10.016;2022-09-20T15:58:45;7.30;;;2.72;;
29712;SDS011;16623;53.632;10.016;2022-09-20T16:01:15;4.50;;;1.15;;
29712;SDS011;16623;53.632;10.016;2022-09-20T16:03:42;4.47;;;1.15;;
29712;SDS011;16623;53.632;10.016;2022-09-20T16:06:09;10.65;;;1.30;;
29712;SDS011;16623;53.632;10.016;2022-09-20T16:08:36;6.28;;;1.60;;
29712;SDS011;16623;53.632;10.016;2022-09-20T16:11:03;9.82;;;1.17;;
29712;SDS011;16623;53.632;10.016;2022-09-20T16:13:30;6.88;;;1.00;;
29712;SDS011;16623;53.632;10.016;2022-09-20T16:15:57;4.28;;;1.20;;
29712;SDS011;16623;53.632;10.016;2022-09-20T16:18:24;8.50;;;1.67;;
29712;SDS011;16623;53.632;10.016;2022-09-20T16:21:10;5.32;;;1.45;;
29712;SDS011;16623;53.632;10.016;2022-09-20T16:23:38;6.85;;;1.50;;
29712;SDS011;16623;53.632;10.016;2022-09-20T16:26:07;6.13;;;1.50;;
29712;SDS011;16623;53.632;10.016;2022-09-20T16:28:40;7.80;;;1.40;;
29712;SDS011;16623;53.632;10.016;2022-09-20T16:31:22;6.05;;;1.55;;
29712;SDS011;16623;53.632;10.016;2022-09-20T16:33:51;5.85;;;1.67;;
29712;SDS011;16623;53.632;10.016;2022-09-20T16:36:17;10.73;;;1.67;;
29712;SDS011;16623;53.632;10.016;2022-09-20T16:38:43;3.42;;;1.60;;
29712;SDS011;16623;53.632;10.016;2022-09-20T16:41:08;5.10;;;1.20;;
29712;SDS011;16623;53.632;10.016;2022-09-20T16:43:34;3.42;;;1.30;;
29712;SDS011;16623;53.632;10.016;2022-09-20T16:46:01;5.75;;;1.20;;
29712;SDS011;16623;53.632;10.016;2022-09-20T16:48:27;7.63;;;1.65;;
29712;SDS011;16623;53.632;10.016;2022-09-20T16:50:55;12.23;;;1.55;;
29712;SDS011;16623;53.632;10.016;2022-09-20T16:53:22;4.70;;;1.25;;
29712;SDS011;16623;53.632;10.016;2022-09-20T16:55:49;8.18;;;1.50;;
29712;SDS011;16623;53.632;10.016;2022-09-20T16:58:15;9.45;;;2.17;;
29712;SDS011;16623;53.632;10.016;2022-09-20T17:00:41;4.85;;;1.20;;
29712;SDS011;16623;53.632;10.016;2022-09-20T17:03:06;9.00;;;2.22;;
29712;SDS011;16623;53.632;10.016;2022-09-20T17:05:32;4.20;;;1.20;;
29712;SDS011;16623;53.632;10.016;2022-09-20T17:07:58;5.90;;;1.27;;
29712;SDS011;16623;53.632;10.016;2022-09-20T17:10:24;14.35;;;1.73;;
29712;SDS011;16623;53.632;10.016;2022-09-20T17:12:52;3.33;;;1.17;;
29712;SDS011;16623;53.632;10.016;2022-09-20T17:15:21;8.77;;;1.45;;
29712;SDS011;16623;53.632;10.016;2022-09-20T17:17:47;6.00;;;1.17;;
29712;SDS011;16623;53.632;10.016;2022-09-20T17:20:13;6.55;;;1.58;;
29712;SDS011;16623;53.632;10.016;2022-09-20T17:22:38;5.50;;;1.10;;
29712;SDS011;16623;53.632;10.016;2022-09-20T17:25:04;2.42;;;1.15;;
29712;SDS011;16623;53.632;10.016;2022-09-20T17:27:30;7.00;;;1.55;;
29712;SDS011;16623;53.632;10.016;2022-09-20T17:29:56;5.65;;;1.40;;
29712;SDS011;16623;53.632;10.016;2022-09-20T17:32:21;5.80;;;1.98;;
29712;SDS011;16623;53.632;10.016;2022-09-20T17:34:47;7.55;;;1.98;;
29712;SDS011;16623;53.632;10.016;2022-09-20T17:37:13;6.65;;;1.92;;
29712;SDS011;16623;53.632;10.016;2022-09-20T17:39:38;7.68;;;1.98;;
29712;SDS011;16623;53.632;10.016;2022-09-20T17:42:06;12.77;;;1.70;;
29712;SDS011;16623;53.632;10.016;2022-09-20T17:44:31;7.55;;;1.70;;
29712;SDS011;16623;53.632;10.016;2022-09-20T17:47:01;10.90;;;1.75;;
29712;SDS011;16623;53.632;10.016;2022-09-20T17:49:27;10.68;;;1.67;;
29712;SDS011;16623;53.632;10.016;2022-09-20T17:51:54;10.20;;;1.80;;
29712;SDS011;16623;53.632;10.016;2022-09-20T17:54:20;9.40;;;1.73;;
29712;SDS011;16623;53.632;10.016;2022-09-20T17:56:50;6.53;;;1.70;;
29712;SDS011;16623;53.632;10.016;2022-09-20T17:59:17;9.43;;;2.10;;
29712;SDS011;16623;53.632;10.016;2022-09-20T18:01:44;6.88;;;1.35;;
29712;SDS011;16623;53.632;10.016;2022-09-20T18:04:11;3.70;;;1.50;;
29712;SDS011;16623;53.632;10.016;2022-09-20T18:06:39;4.28;;;1.88;;
29712;SDS011;16623;53.632;10.016;2022-09-20T18:09:09;10.65;;;2.00;;
29712;SDS011;16623;53.632;10.016;2022-09-20T18:11:45;11.23;;;1.52;;
29712;SDS011;16623;53.632;10.016;2022-09-20T18:14:13;8.75;;;2.83;;
29712;SDS011;16623;53.632;10.016;2022-09-20T18:16:41;5.65;;;2.33;;
29712;SDS011;16623;53.632;10.016;2022-09-20T18:19:08;9.48;;;1.70;;
29712;SDS011;16623;53.632;10.016;2022-09-20T18:21:35;6.13;;;1.90;;
29712;SDS011;16623;53.632;10.016;2022-09-20T18:24:05;5.35;;;1.75;;
29712;SDS011;16623;53.632;10.016;2022-09-20T18:26:32;9.98;;;2.13;;
29712;SDS011;16623;53.632;10.016;2022-09-20T18:31:39;10.48;;;2.30;;
29712;SDS011;16623;53.632;10.016;2022-09-20T18:34:09;10.60;;;2.75;;
29712;SDS011;16623;53.632;10.016;2022-09-20T18:36:42;3.28;;;1.77;;
29712;SDS011;16623;53.632;10.016;2022-09-20T18:39:11;5.68;;;1.92;;
29712;SDS011;16623;53.632;10.016;2022-09-20T18:41:42;7.32;;;1.73;;
29712;SDS011;16623;53.632;10.016;2022-09-20T18:44:09;12.35;;;1.80;;
29712;SDS011;16623;53.632;10.016;2022-09-20T18:46:38;4.95;;;1.70;;
29712;SDS011;16623;53.632;10.016;2022-09-20T18:49:05;5.63;;;1.88;;
29712;SDS011;16623;53.632;10.016;2022-09-20T18:51:33;8.38;;;2.72;;
29712;SDS011;16623;53.632;10.016;2022-09-20T18:53:59;7.60;;;2.00;;
29712;SDS011;16623;53.632;10.016;2022-09-20T18:58:56;7.25;;;2.47;;
29712;SDS011;16623;53.632;10.016;2022-09-20T19:01:40;8.30;;;2.10;;
29712;SDS011;16623;53.632;10.016;2022-09-20T19:07:19;7.90;;;2.25;;